Buoy 32622

sailwx.info

Track history (hours):
 
Tides and Currents Weather Stations Pressure Air Temp Water Temp Dewpoint Dewpoint Depression Visibility Wind Speed Wind Dir Waves Ship Positions

Aadnyj

Last reported at 2017-Apr-29 20:00 UTC. Time now 2017-Apr-29 23:27 UTC.
Position S 12°08' W 145°43'.

Length 56 m.

Type: Towing. MMSI: 413600286.

Water temperature 29.3 ° C

Date/timePositionNaut miles runAvg speedWind from/ knotsBaromVisibWave heightAir tempDewpointWater temp
2017-Apr-29 20:00S 12°08' W 145°43'1 1.3 29.3
2017-Apr-29 19:00S 12°08' W 145°41'0 0.0 29.3
2017-Apr-29 18:00S 12°08' W 145°41'1 0.4 29.4
2017-Apr-29 16:00S 12°08' W 145°41'0 0.0 29.4
2017-Apr-29 15:00S 12°08' W 145°41'3 3.0 29.4
2017-Apr-29 14:00S 12°07' W 145°38'0 0.0 29.4
2017-Apr-29 13:00S 12°07' W 145°38'0 0.0 29.4
2017-Apr-29 12:00S 12°07' W 145°38'0 0.0 29.4
2017-Apr-29 11:00S 12°07' W 145°38'2 0.6 29.4
2017-Apr-29 08:00S 12°07' W 145°36'1 1.2 29.4
2017-Apr-29 07:00S 12°07' W 145°35'1 0.6 29.4
2017-Apr-29 05:00S 12°05' W 145°35'1 1.2 29.4
2017-Apr-29 04:00S 12°05' W 145°34'2 1.8 29.5
2017-Apr-29 03:00S 12°05' W 145°32'2 1.7 29.5
2017-Apr-29 02:00S 12°04' W 145°31'0 0.0 29.6
2017-Apr-29 01:00S 12°04' W 145°31'0 0.0 29.6
2017-Apr-29 00:00S 12°04' W 145°31'2 0.4 29.6
2017-Apr-28 20:00S 12°03' W 145°29'2 2.1 29.4
2017-Apr-28 19:00S 12°04' W 145°28'1 0.6 29.4
2017-Apr-28 18:00S 12°04' W 145°27'2 1.7 29.4
2017-Apr-28 17:00S 12°03' W 145°26'1 0.6 29.4
2017-Apr-28 16:00S 12°04' W 145°26'1 1.3 29.4
2017-Apr-28 15:00S 12°03' W 145°25'0 0.0 29.4
2017-Apr-28 14:00S 12°03' W 145°25'1 0.6 29.4
2017-Apr-28 13:00S 12°02' W 145°25'0 0.0 29.4
2017-Apr-28 11:00S 12°02' W 145°25'3 1.0 29.4
2017-Apr-28 08:00S 12°02' W 145°22'1 1.2 29.5
2017-Apr-28 07:00S 12°02' W 145°20'0 0.0 29.5
2017-Apr-28 06:00S 12°02' W 145°20'1 0.8 29.5
2017-Apr-28 05:00S 12°02' W 145°21'2 1.9 29.5
2017-Apr-28 04:00S 12°02' W 145°19'0 0.0 29.5
2017-Apr-28 03:00S 12°02' W 145°19'1 0.6 29.6
2017-Apr-28 02:00S 12°02' W 145°19'0 0.0 29.6
2017-Apr-28 01:00S 12°02' W 145°19'0 0.0 29.6
2017-Apr-28 00:00S 12°02' W 145°19'4 0.7 29.6
2017-Apr-27 19:00S 12°02' W 145°16'1 1.3 29.5
2017-Apr-27 18:00S 12°02' W 145°17'2 2.4 29.5
2017-Apr-27 17:00S 12°01' W 145°14'1 0.4 29.5
2017-Apr-27 15:00S 12°01' W 145°15'0 0.0 29.5
2017-Apr-27 14:00S 12°01' W 145°15'0 0.0 29.5
2017-Apr-27 13:00S 12°01' W 145°15'1 1.3 29.5
2017-Apr-27 12:00S 11°59' W 145°14'0 0.0 29.5
2017-Apr-27 11:00S 11°59' W 145°14'2 0.7 29.5
2017-Apr-27 08:00S 11°58' W 145°13'1 1.3 29.6
2017-Apr-27 07:00S 11°57' W 145°12'2 2.1 29.6
2017-Apr-27 06:00S 11°56' W 145°10'0 0.0 29.6
2017-Apr-27 05:00S 11°56' W 145°10'0 0.0 29.6
2017-Apr-27 04:00S 11°56' W 145°10'1 1.3 29.6
2017-Apr-27 03:00S 11°55' W 145°09'0 0.0 29.6
2017-Apr-27 02:00S 11°55' W 145°09'5 4.8 29.6
2017-Apr-27 01:00S 11°54' W 145°04'0 0.0 29.6
2017-Apr-27 00:00S 11°54' W 145°04'1 0.3 29.7
2017-Apr-26 19:00S 11°53' W 145°03'0 0.0 29.6
2017-Apr-26 18:00S 11°53' W 145°03'1 0.8 29.6
2017-Apr-26 17:00S 11°54' W 145°02'2 1.7 29.6
2017-Apr-26 16:00S 11°53' W 145°01'0 0.0 29.6
2017-Apr-26 15:00S 11°53' W 145°01'2 1.9 29.6
2017-Apr-26 14:00S 11°53' W 144°59'0 0.0 29.6
2017-Apr-26 13:00S 11°53' W 144°59'0 0.0 29.6
2017-Apr-26 12:00S 11°53' W 144°59'0 0.0 29.6
2017-Apr-26 11:00S 11°53' W 144°59'2 0.7 29.6
2017-Apr-26 08:00S 11°55' W 144°58'2 1.7 29.6
2017-Apr-26 07:00S 11°53' W 144°56'2 2.1 29.6
2017-Apr-26 06:00S 11°52' W 144°55'1 0.6 29.6
2017-Apr-26 05:00S 11°53' W 144°55'1 1.3 29.6
2017-Apr-26 04:00S 11°52' W 144°53'1 0.6 29.7
2017-Apr-26 03:00S 11°53' W 144°53'3 3.0 29.7
2017-Apr-26 02:00S 11°52' W 144°50'0 0.0 29.7
2017-Apr-26 01:00S 11°52' W 144°50'1 1.3 29.8
2017-Apr-26 00:00S 11°53' W 144°50'0 0.0 29.8
2017-Apr-25 23:00S 11°53' W 144°50'1 0.3 29.8
2017-Apr-25 19:00S 11°53' W 144°49'0 0.0 29.6
2017-Apr-25 18:00S 11°53' W 144°49'1 0.6 29.6
2017-Apr-25 17:00S 11°53' W 144°49'2 1.9 29.6
2017-Apr-25 16:00S 11°53' W 144°47'2 1.9 29.6
2017-Apr-25 15:00S 11°52' W 144°46'1 1.3 29.6
2017-Apr-25 14:00S 11°52' W 144°44'0 0.0 29.6
2017-Apr-25 12:00S 11°52' W 144°44'0 0.0 29.6
2017-Apr-25 11:00S 11°52' W 144°44'3 1.0 29.6
2017-Apr-25 08:00S 11°52' W 144°41'0 0.0 29.6
2017-Apr-25 07:00S 11°52' W 144°41'1 0.8 29.6
2017-Apr-25 06:00S 11°51' W 144°41'0 0.0 29.6
2017-Apr-25 05:00S 11°51' W 144°41'1 1.3 29.6
2017-Apr-25 04:00S 11°50' W 144°40'1 1.3 29.7
2017-Apr-25 03:00S 11°50' W 144°38'0 0.0 29.7
2017-Apr-25 02:00S 11°50' W 144°38'1 1.3 29.8
2017-Apr-25 01:00S 11°49' W 144°37'1 0.8 29.8
2017-Apr-25 00:00S 11°49' W 144°37'0 0.0 29.8
2017-Apr-24 23:00S 11°49' W 144°37'6 1.5 29.8
2017-Apr-24 19:00S 11°49' W 144°31'0 0.0 29.6
2017-Apr-24 18:00S 11°49' W 144°31'1 1.3 29.6
2017-Apr-24 17:00S 11°47' W 144°30'0 0.0 29.6
2017-Apr-24 16:00S 11°47' W 144°30'1 1.2 29.6
2017-Apr-24 15:00S 11°47' W 144°29'0 0.0 29.6
2017-Apr-24 14:00S 11°47' W 144°29'7 3.5 29.6
2017-Apr-24 12:00S 11°47' W 144°22'1 0.2 29.6
2017-Apr-24 07:00S 11°47' W 144°20'1 0.6 29.6
2017-Apr-24 06:00S 11°47' W 144°20'0 0.0 29.6
2017-Apr-24 05:00S 11°47' W 144°20'1 1.2 29.6
2017-Apr-24 04:00S 11°47' W 144°19'1 0.6 29.7
2017-Apr-24 03:00S 11°47' W 144°18'2 1.8 29.7
2017-Apr-24 02:00S 11°47' W 144°16'0 0.0 29.7
2017-Apr-24 01:00S 11°47' W 144°16'2 1.8 29.7
2017-Apr-24 00:00S 11°47' W 144°14'4 3.6 29.8
2017-Apr-23 23:00S 11°48' W 144°11'0 0.0 29.7
2017-Apr-23 20:00S 11°48' W 144°11'1 0.6 29.6
2017-Apr-23 19:00S 11°48' W 144°11'1 1.2 29.6
2017-Apr-23 18:00S 11°48' W 144°10'0 0.0 29.6
2017-Apr-23 17:00S 11°48' W 144°10'1 1.3 29.6
2017-Apr-23 16:00S 11°47' W 144°09'0 0.0 29.6
2017-Apr-23 15:00S 11°47' W 144°09'2 1.8 29.6
2017-Apr-23 14:00S 11°47' W 144°07'0 0.0 29.6
2017-Apr-23 13:00S 11°47' W 144°07'1 0.6 29.6
2017-Apr-23 12:00S 11°47' W 144°07'0 0.0 29.6
2017-Apr-23 11:00S 11°47' W 144°07'2 0.6 29.5
2017-Apr-23 08:00S 11°47' W 144°05'1 0.8 29.5
2017-Apr-23 07:00S 11°46' W 144°05'0 0.0 29.5
2017-Apr-23 06:00S 11°46' W 144°05'2 1.9 29.5
2017-Apr-23 05:00S 11°46' W 144°03'0 0.0 29.5
2017-Apr-23 04:00S 11°46' W 144°03'2 1.9 29.5
2017-Apr-23 03:00S 11°45' W 144°01'0 0.0 29.4
2017-Apr-23 02:00S 11°45' W 144°01'0 0.0 29.4
2017-Apr-23 01:00S 11°45' W 144°01'1 1.3 29.4
2017-Apr-23 00:00S 11°44' W 144°00'0 0.0 29.4
2017-Apr-22 23:00S 11°44' W 144°00'3 1.1 29.2
2017-Apr-22 20:00S 11°43' W 143°57'0 0.0 29.6
2017-Apr-22 19:00S 11°43' W 143°57'1 0.8 29.6
2017-Apr-22 18:00S 11°43' W 143°56'1 0.8 29.6
2017-Apr-22 17:00S 11°43' W 143°57'2 1.9 29.6
2017-Apr-22 16:00S 11°43' W 143°55'1 1.2 29.6
2017-Apr-22 15:00S 11°43' W 143°54'1 1.3 29.6
2017-Apr-22 14:00S 11°43' W 143°53'1 0.6 29.6
2017-Apr-22 13:00S 11°44' W 143°53'0 0.0 29.6
2017-Apr-22 12:00S 11°44' W 143°53'2 2.1 29.6
2017-Apr-22 11:00S 11°45' W 143°51'0 0.0 29.6
2017-Apr-22 10:00S 11°45' W 143°51'1 0.4 29.6
2017-Apr-22 07:00S 11°45' W 143°50'1 1.2 29.6
2017-Apr-22 06:00S 11°45' W 143°49'1 0.6 29.6
2017-Apr-22 05:00S 11°45' W 143°49'0 0.0 29.6
2017-Apr-22 04:00S 11°45' W 143°49'3 2.6 29.6
2017-Apr-22 03:00S 11°46' W 143°47'1 1.2 29.6
2017-Apr-22 02:00S 11°45' W 143°47'1 1.3 29.6
2017-Apr-22 01:00S 11°46' W 143°46'1 0.6 29.6
2017-Apr-22 00:00S 11°46' W 143°45'0 0.0 29.6
2017-Apr-21 23:00S 11°46' W 143°45'2 0.6 29.6
2017-Apr-21 20:00S 11°46' W 143°43'2 2.4 29.6
2017-Apr-21 19:00S 11°46' W 143°41'0 0.0 29.6
2017-Apr-21 18:00S 11°46' W 143°41'2 1.8 29.6
2017-Apr-21 17:00S 11°46' W 143°39'1 0.6 29.6
2017-Apr-21 16:00S 11°46' W 143°38'1 0.6 29.6
2017-Apr-21 15:00S 11°46' W 143°38'4 1.9 29.6
2017-Apr-21 13:00S 11°45' W 143°34'0 0.0 29.6
2017-Apr-21 12:00S 11°45' W 143°34'1 0.6 29.6
2017-Apr-21 11:00S 11°46' W 143°34'0 0.0 29.6
2017-Apr-21 10:00S 11°46' W 143°34'8 3.9 29.6
2017-Apr-21 08:00S 11°44' W 143°26'1 0.6 29.6
2017-Apr-21 07:00S 11°44' W 143°27'0 0.0 29.6
2017-Apr-21 06:00S 11°44' W 143°27'0 0.0 29.6
2017-Apr-21 05:00S 11°44' W 143°27'2 2.3 29.6
2017-Apr-21 04:00S 11°44' W 143°25'1 1.2 29.7
2017-Apr-21 03:00S 11°44' W 143°23'1 1.3 29.7
2017-Apr-21 02:00S 11°44' W 143°22'2 1.9 29.7
2017-Apr-21 01:00S 11°44' W 143°20'1 0.6 29.8
2017-Apr-21 00:00S 11°44' W 143°20'0 0.0 29.7
2017-Apr-20 23:00S 11°44' W 143°20'7 1.8 29.8
2017-Apr-20 19:00S 11°46' W 143°13'1 1.3 29.7
2017-Apr-20 18:00S 11°46' W 143°12'1 1.3 29.7
2017-Apr-20 17:00S 11°47' W 143°11'1 0.6 29.7
2017-Apr-20 16:00S 11°47' W 143°11'1 1.3 29.7
2017-Apr-20 15:00S 11°46' W 143°10'1 1.3 29.7
2017-Apr-20 14:00S 11°47' W 143°09'0 0.0 29.7
2017-Apr-20 13:00S 11°47' W 143°09'1 1.3 29.8
2017-Apr-20 12:00S 11°47' W 143°08'0 0.0 29.8
2017-Apr-20 11:00S 11°47' W 143°08'4 1.3 29.8
2017-Apr-20 08:00S 11°49' W 143°04'0 0.0 29.8
2017-Apr-20 07:00S 11°49' W 143°04'1 0.8 29.9
2017-Apr-20 06:00S 11°50' W 143°04'1 1.2 30.0
2017-Apr-20 05:00S 11°51' W 143°04'0 0.0 30.3
2017-Apr-20 04:00S 11°51' W 143°04'1 0.6 30.6
2017-Apr-20 03:00S 11°51' W 143°03'0 0.0 31.0
2017-Apr-20 02:00S 11°51' W 143°03'1 0.8 31.2
2017-Apr-20 01:00S 11°52' W 143°02'0 0.0 31.2
2017-Apr-20 00:00S 11°52' W 143°02'   30.8
Track history (hours):
 
Tides and Currents Weather Stations Pressure Air Temp Water Temp Dewpoint Dewpoint Depression Visibility Wind Speed Wind Dir Waves Ship Positions

Aadnyj

Last reported at 2017-Apr-29 20:00 UTC. Time now 2017-Apr-29 23:27 UTC.
Position S 12°08' W 145°43'.

Length 56 m.

Type: Towing. MMSI: 413600286.

Water temperature 29.3 ° C

Date/timePositionNaut miles runAvg speedWind from/ knotsBaromVisibWave heightAir tempDewpointWater temp
2017-Apr-29 20:00S 12°08' W 145°43'1 1.3 29.3
2017-Apr-29 19:00S 12°08' W 145°41'0 0.0 29.3
2017-Apr-29 18:00S 12°08' W 145°41'1 0.4 29.4
2017-Apr-29 16:00S 12°08' W 145°41'0 0.0 29.4
2017-Apr-29 15:00S 12°08' W 145°41'3 3.0 29.4
2017-Apr-29 14:00S 12°07' W 145°38'0 0.0 29.4
2017-Apr-29 13:00S 12°07' W 145°38'0 0.0 29.4
2017-Apr-29 12:00S 12°07' W 145°38'0 0.0 29.4
2017-Apr-29 11:00S 12°07' W 145°38'2 0.6 29.4
2017-Apr-29 08:00S 12°07' W 145°36'1 1.2 29.4
2017-Apr-29 07:00S 12°07' W 145°35'1 0.6 29.4
2017-Apr-29 05:00S 12°05' W 145°35'1 1.2 29.4
2017-Apr-29 04:00S 12°05' W 145°34'2 1.8 29.5
2017-Apr-29 03:00S 12°05' W 145°32'2 1.7 29.5
2017-Apr-29 02:00S 12°04' W 145°31'0 0.0 29.6
2017-Apr-29 01:00S 12°04' W 145°31'0 0.0 29.6
2017-Apr-29 00:00S 12°04' W 145°31'2 0.4 29.6
2017-Apr-28 20:00S 12°03' W 145°29'2 2.1 29.4
2017-Apr-28 19:00S 12°04' W 145°28'1 0.6 29.4
2017-Apr-28 18:00S 12°04' W 145°27'2 1.7 29.4
2017-Apr-28 17:00S 12°03' W 145°26'1 0.6 29.4
2017-Apr-28 16:00S 12°04' W 145°26'1 1.3 29.4
2017-Apr-28 15:00S 12°03' W 145°25'0 0.0 29.4
2017-Apr-28 14:00S 12°03' W 145°25'1 0.6 29.4
2017-Apr-28 13:00S 12°02' W 145°25'0 0.0 29.4
2017-Apr-28 11:00S 12°02' W 145°25'3 1.0 29.4
2017-Apr-28 08:00S 12°02' W 145°22'1 1.2 29.5
2017-Apr-28 07:00S 12°02' W 145°20'0 0.0 29.5
2017-Apr-28 06:00S 12°02' W 145°20'1 0.8 29.5
2017-Apr-28 05:00S 12°02' W 145°21'2 1.9 29.5
2017-Apr-28 04:00S 12°02' W 145°19'0 0.0 29.5
2017-Apr-28 03:00S 12°02' W 145°19'1 0.6 29.6
2017-Apr-28 02:00S 12°02' W 145°19'0 0.0 29.6
2017-Apr-28 01:00S 12°02' W 145°19'0 0.0 29.6
2017-Apr-28 00:00S 12°02' W 145°19'4 0.7 29.6
2017-Apr-27 19:00S 12°02' W 145°16'1 1.3 29.5
2017-Apr-27 18:00S 12°02' W 145°17'2 2.4 29.5
2017-Apr-27 17:00S 12°01' W 145°14'1 0.4 29.5
2017-Apr-27 15:00S 12°01' W 145°15'0 0.0 29.5
2017-Apr-27 14:00S 12°01' W 145°15'0 0.0 29.5
2017-Apr-27 13:00S 12°01' W 145°15'1 1.3 29.5
2017-Apr-27 12:00S 11°59' W 145°14'0 0.0 29.5
2017-Apr-27 11:00S 11°59' W 145°14'2 0.7 29.5
2017-Apr-27 08:00S 11°58' W 145°13'1 1.3 29.6
2017-Apr-27 07:00S 11°57' W 145°12'2 2.1 29.6
2017-Apr-27 06:00S 11°56' W 145°10'0 0.0 29.6
2017-Apr-27 05:00S 11°56' W 145°10'0 0.0 29.6
2017-Apr-27 04:00S 11°56' W 145°10'1 1.3 29.6
2017-Apr-27 03:00S 11°55' W 145°09'0 0.0 29.6
2017-Apr-27 02:00S 11°55' W 145°09'5 4.8 29.6
2017-Apr-27 01:00S 11°54' W 145°04'0 0.0 29.6
2017-Apr-27 00:00S 11°54' W 145°04'1 0.3 29.7
2017-Apr-26 19:00S 11°53' W 145°03'0 0.0 29.6
2017-Apr-26 18:00S 11°53' W 145°03'1 0.8 29.6
2017-Apr-26 17:00S 11°54' W 145°02'2 1.7 29.6
2017-Apr-26 16:00S 11°53' W 145°01'0 0.0 29.6
2017-Apr-26 15:00S 11°53' W 145°01'2 1.9 29.6
2017-Apr-26 14:00S 11°53' W 144°59'0 0.0 29.6
2017-Apr-26 13:00S 11°53' W 144°59'0 0.0 29.6
2017-Apr-26 12:00S 11°53' W 144°59'0 0.0 29.6
2017-Apr-26 11:00S 11°53' W 144°59'2 0.7 29.6
2017-Apr-26 08:00S 11°55' W 144°58'2 1.7 29.6
2017-Apr-26 07:00S 11°53' W 144°56'2 2.1 29.6
2017-Apr-26 06:00S 11°52' W 144°55'1 0.6 29.6
2017-Apr-26 05:00S 11°53' W 144°55'1 1.3 29.6
2017-Apr-26 04:00S 11°52' W 144°53'1 0.6 29.7
2017-Apr-26 03:00S 11°53' W 144°53'3 3.0 29.7
2017-Apr-26 02:00S 11°52' W 144°50'0 0.0 29.7
2017-Apr-26 01:00S 11°52' W 144°50'1 1.3 29.8
2017-Apr-26 00:00S 11°53' W 144°50'0 0.0 29.8
2017-Apr-25 23:00S 11°53' W 144°50'1 0.3 29.8
2017-Apr-25 19:00S 11°53' W 144°49'0 0.0 29.6
2017-Apr-25 18:00S 11°53' W 144°49'1 0.6 29.6
2017-Apr-25 17:00S 11°53' W 144°49'2 1.9 29.6
2017-Apr-25 16:00S 11°53' W 144°47'2 1.9 29.6
2017-Apr-25 15:00S 11°52' W 144°46'1 1.3 29.6
2017-Apr-25 14:00S 11°52' W 144°44'0 0.0 29.6
2017-Apr-25 12:00S 11°52' W 144°44'0 0.0 29.6
2017-Apr-25 11:00S 11°52' W 144°44'3 1.0 29.6
2017-Apr-25 08:00S 11°52' W 144°41'0 0.0 29.6
2017-Apr-25 07:00S 11°52' W 144°41'1 0.8 29.6
2017-Apr-25 06:00S 11°51' W 144°41'0 0.0 29.6
2017-Apr-25 05:00S 11°51' W 144°41'1 1.3 29.6
2017-Apr-25 04:00S 11°50' W 144°40'1 1.3 29.7
2017-Apr-25 03:00S 11°50' W 144°38'0 0.0 29.7
2017-Apr-25 02:00S 11°50' W 144°38'1 1.3 29.8
2017-Apr-25 01:00S 11°49' W 144°37'1 0.8 29.8
2017-Apr-25 00:00S 11°49' W 144°37'0 0.0 29.8
2017-Apr-24 23:00S 11°49' W 144°37'6 1.5 29.8
2017-Apr-24 19:00S 11°49' W 144°31'0 0.0 29.6
2017-Apr-24 18:00S 11°49' W 144°31'1 1.3 29.6
2017-Apr-24 17:00S 11°47' W 144°30'0 0.0 29.6
2017-Apr-24 16:00S 11°47' W 144°30'1 1.2 29.6
2017-Apr-24 15:00S 11°47' W 144°29'0 0.0 29.6
2017-Apr-24 14:00S 11°47' W 144°29'7 3.5 29.6
2017-Apr-24 12:00S 11°47' W 144°22'1 0.2 29.6
2017-Apr-24 07:00S 11°47' W 144°20'1 0.6 29.6
2017-Apr-24 06:00S 11°47' W 144°20'0 0.0 29.6
2017-Apr-24 05:00S 11°47' W 144°20'1 1.2 29.6
2017-Apr-24 04:00S 11°47' W 144°19'1 0.6 29.7
2017-Apr-24 03:00S 11°47' W 144°18'2 1.8 29.7
2017-Apr-24 02:00S 11°47' W 144°16'0 0.0 29.7
2017-Apr-24 01:00S 11°47' W 144°16'2 1.8 29.7
2017-Apr-24 00:00S 11°47' W 144°14'4 3.6 29.8
2017-Apr-23 23:00S 11°48' W 144°11'0 0.0 29.7
2017-Apr-23 20:00S 11°48' W 144°11'1 0.6 29.6
2017-Apr-23 19:00S 11°48' W 144°11'1 1.2 29.6
2017-Apr-23 18:00S 11°48' W 144°10'0 0.0 29.6
2017-Apr-23 17:00S 11°48' W 144°10'1 1.3 29.6
2017-Apr-23 16:00S 11°47' W 144°09'0 0.0 29.6
2017-Apr-23 15:00S 11°47' W 144°09'2 1.8 29.6
2017-Apr-23 14:00S 11°47' W 144°07'0 0.0 29.6
2017-Apr-23 13:00S 11°47' W 144°07'1 0.6 29.6
2017-Apr-23 12:00S 11°47' W 144°07'0 0.0 29.6
2017-Apr-23 11:00S 11°47' W 144°07'2 0.6 29.5
2017-Apr-23 08:00S 11°47' W 144°05'1 0.8 29.5
2017-Apr-23 07:00S 11°46' W 144°05'0 0.0 29.5
2017-Apr-23 06:00S 11°46' W 144°05'2 1.9 29.5
2017-Apr-23 05:00S 11°46' W 144°03'0 0.0 29.5
2017-Apr-23 04:00S 11°46' W 144°03'2 1.9 29.5
2017-Apr-23 03:00S 11°45' W 144°01'0 0.0 29.4
2017-Apr-23 02:00S 11°45' W 144°01'0 0.0 29.4
2017-Apr-23 01:00S 11°45' W 144°01'1 1.3 29.4
2017-Apr-23 00:00S 11°44' W 144°00'0 0.0 29.4
2017-Apr-22 23:00S 11°44' W 144°00'3 1.1 29.2
2017-Apr-22 20:00S 11°43' W 143°57'0 0.0 29.6
2017-Apr-22 19:00S 11°43' W 143°57'1 0.8 29.6
2017-Apr-22 18:00S 11°43' W 143°56'1 0.8 29.6
2017-Apr-22 17:00S 11°43' W 143°57'2 1.9 29.6
2017-Apr-22 16:00S 11°43' W 143°55'1 1.2 29.6
2017-Apr-22 15:00S 11°43' W 143°54'1 1.3 29.6
2017-Apr-22 14:00S 11°43' W 143°53'1 0.6 29.6
2017-Apr-22 13:00S 11°44' W 143°53'0 0.0 29.6
2017-Apr-22 12:00S 11°44' W 143°53'2 2.1 29.6
2017-Apr-22 11:00S 11°45' W 143°51'0 0.0 29.6
2017-Apr-22 10:00S 11°45' W 143°51'1 0.4 29.6
2017-Apr-22 07:00S 11°45' W 143°50'1 1.2 29.6
2017-Apr-22 06:00S 11°45' W 143°49'1 0.6 29.6
2017-Apr-22 05:00S 11°45' W 143°49'0 0.0 29.6
2017-Apr-22 04:00S 11°45' W 143°49'3 2.6 29.6
2017-Apr-22 03:00S 11°46' W 143°47'1 1.2 29.6
2017-Apr-22 02:00S 11°45' W 143°47'1 1.3 29.6
2017-Apr-22 01:00S 11°46' W 143°46'1 0.6 29.6
2017-Apr-22 00:00S 11°46' W 143°45'0 0.0 29.6
2017-Apr-21 23:00S 11°46' W 143°45'2 0.6 29.6
2017-Apr-21 20:00S 11°46' W 143°43'2 2.4 29.6
2017-Apr-21 19:00S 11°46' W 143°41'0 0.0 29.6
2017-Apr-21 18:00S 11°46' W 143°41'2 1.8 29.6
2017-Apr-21 17:00S 11°46' W 143°39'1 0.6 29.6
2017-Apr-21 16:00S 11°46' W 143°38'1 0.6 29.6
2017-Apr-21 15:00S 11°46' W 143°38'4 1.9 29.6
2017-Apr-21 13:00S 11°45' W 143°34'0 0.0 29.6
2017-Apr-21 12:00S 11°45' W 143°34'1 0.6 29.6
2017-Apr-21 11:00S 11°46' W 143°34'0 0.0 29.6
2017-Apr-21 10:00S 11°46' W 143°34'8 3.9 29.6
2017-Apr-21 08:00S 11°44' W 143°26'1 0.6 29.6
2017-Apr-21 07:00S 11°44' W 143°27'0 0.0 29.6
2017-Apr-21 06:00S 11°44' W 143°27'0 0.0 29.6
2017-Apr-21 05:00S 11°44' W 143°27'2 2.3 29.6
2017-Apr-21 04:00S 11°44' W 143°25'1 1.2 29.7
2017-Apr-21 03:00S 11°44' W 143°23'1 1.3 29.7
2017-Apr-21 02:00S 11°44' W 143°22'2 1.9 29.7
2017-Apr-21 01:00S 11°44' W 143°20'1 0.6 29.8
2017-Apr-21 00:00S 11°44' W 143°20'0 0.0 29.7
2017-Apr-20 23:00S 11°44' W 143°20'7 1.8 29.8
2017-Apr-20 19:00S 11°46' W 143°13'1 1.3 29.7
2017-Apr-20 18:00S 11°46' W 143°12'1 1.3 29.7
2017-Apr-20 17:00S 11°47' W 143°11'1 0.6 29.7
2017-Apr-20 16:00S 11°47' W 143°11'1 1.3 29.7
2017-Apr-20 15:00S 11°46' W 143°10'1 1.3 29.7
2017-Apr-20 14:00S 11°47' W 143°09'0 0.0 29.7
2017-Apr-20 13:00S 11°47' W 143°09'1 1.3 29.8
2017-Apr-20 12:00S 11°47' W 143°08'0 0.0 29.8
2017-Apr-20 11:00S 11°47' W 143°08'4 1.3 29.8
2017-Apr-20 08:00S 11°49' W 143°04'0 0.0 29.8
2017-Apr-20 07:00S 11°49' W 143°04'1 0.8 29.9
2017-Apr-20 06:00S 11°50' W 143°04'1 1.2 30.0
2017-Apr-20 05:00S 11°51' W 143°04'0 0.0 30.3
2017-Apr-20 04:00S 11°51' W 143°04'1 0.6 30.6
2017-Apr-20 03:00S 11°51' W 143°03'0 0.0 31.0
2017-Apr-20 02:00S 11°51' W 143°03'1 0.8 31.2
2017-Apr-20 01:00S 11°52' W 143°02'0 0.0 31.2
2017-Apr-20 00:00S 11°52' W 143°02'   30.8

Dump ship's entire track history